• Join FlightAware (Why Join?)
  • Login
  • US Flag 
02:35AM EDT


 

Airport Tracker/Info


-or-


 

Live Flight TrackerFlight Track Log ✈ UAL5887 ✈ 13-May-2013 ✈ KCLT - KORD

Flight Track Log - Related Links

Times and Time Zones

All times are in EDT time to prevent confusion due to time zone crossing. See the UAL5887 flight status page for this flight to view local times or setup timezone preferences in your user account.

Time Position Orientation Groundspeed Altitude Reporting Facility
EDT Latitude Longitude Course Direction KTS MPH feet Rate Location/Type
06:51PM 35.2353 -80.9594 328° Northwest 160 184 1,600  Level Atlanta Center
06:53PM 35.2992 -81.0081 328° Northwest 250 288 4,000 1,800 Climbing Atlanta Center
06:54PM 35.3592 -80.9956 10° North 250 288 6,000 2,160 Climbing Atlanta Center
06:55PM 35.4297 -80.9775 12° North 250 288 8,400 2,280 Climbing Atlanta Center
06:56PM 35.5042 -80.9544 14° North 271 312 10,600 1,800 Climbing Atlanta Center
06:57PM 35.5828 -80.9286 15° North 281 323 12,000 1,680 Climbing Atlanta Center
06:58PM 35.6636 -80.9050 13° North 287 330 14,000 1,680 Climbing Atlanta Center
06:59PM 35.7467 -80.8917 North 292 336 15,400 1,140 Climbing Atlanta Center
07:00PM 35.8186 -80.9322 335° Northwest 281 323 16,400 1,020 Climbing Atlanta Center
07:01PM 35.8931 -80.9833 331° Northwest 293 337 17,500 1,080 Climbing Atlanta Center
07:02PM 35.9672 -81.0319 332° Northwest 308 354 18,600 1,200 Climbing Atlanta Center
07:03PM 36.0436 -81.0831 332° Northwest 308 354 20,000 1,320 Climbing Atlanta Center
07:04PM 36.1178 -81.1342 331° Northwest 308 354 21,300 1,260 Climbing Atlanta Center
07:05PM 36.1900 -81.1856 330° Northwest 308 354 22,600 1,200 Climbing Atlanta Center
07:06PM 36.2661 -81.2369 331° Northwest 308 354 23,800 1,200 Climbing Atlanta Center
07:07PM 36.3325 -81.3172 316° Northwest 303 349 25,000 1,200 Climbing Atlanta Center
07:08PM 36.3906 -81.3925 314° West 303 349 26,200 1,140 Climbing Atlanta Center
07:09PM 36.4525 -81.4653 317° Northwest 309 356 27,400 1,200 Climbing Atlanta Center
07:10PM 36.5103 -81.5358 316° Northwest 303 349 28,700 1,140 Climbing Atlanta Center
07:11PM 36.5681 -81.6117 314° West 298 343 29,700 1,080 Climbing Atlanta Center
07:12PM 36.6258 -81.6822 316° Northwest 290 334 30,900 1,260 Climbing Atlanta Center
07:13PM 36.6814 -81.7506 315° West 290 334 32,300 1,020 Climbing Atlanta Center
07:15PM 36.8014 -81.9017 315° West 286 329 34,400 960 Climbing Indianapolis Center
07:16PM 36.8683 -81.9853 315° West 289 333 35,500 720 Climbing Indianapolis Center
07:17PM 36.9253 -82.0572 315° West 288 331 36,000 240 Climbing Indianapolis Center
07:18PM 36.9850 -82.1333 315° West 304 350 36,000  Level Indianapolis Center
07:19PM 37.0500 -82.2136 315° West 322 371 36,000  Level Indianapolis Center
07:20PM 37.1175 -82.2992 315° West 341 392 36,000  Level Indianapolis Center
07:21PM 37.1972 -82.4017 314° West 351 404 36,000  Level Indianapolis Center
07:22PM 37.2667 -82.4906 314° West 357 411 36,000  Level Indianapolis Center
07:23PM 37.3350 -82.5783 314° West 354 407 36,000  Level Indianapolis Center
07:24PM 37.4031 -82.6650 315° West 350 403 36,000  Level Indianapolis Center
07:25PM 37.4692 -82.7517 314° West 346 398 36,000 -60 Level Indianapolis Center
07:26PM 37.5489 -82.8525 315° West 348 400 35,900 -60 Descending Indianapolis Center
07:27PM 37.6158 -82.9408 314° West 348 400 35,900  Level Indianapolis Center
07:28PM 37.6831 -83.0281 314° West 348 400 36,000  Climbing Indianapolis Center
07:29PM 37.7517 -83.1156 315° West 350 403 35,900  Descending Indianapolis Center
07:30PM 37.8208 -83.2072 314° West 358 412 36,000  Climbing Indianapolis Center
07:31PM 37.8908 -83.2989 314° West 361 415 36,000  Level Indianapolis Center
07:32PM 37.9694 -83.4042 313° West 354 407 36,000  Level Indianapolis Center
07:33PM 38.0394 -83.4939 315° West 356 410 36,000  Level Indianapolis Center
07:35PM 38.1083 -83.5844 314° West 356 410 36,000  Level Indianapolis Center
07:36PM 38.1769 -83.6772 313° West 358 412 36,000 -540 Level Indianapolis Center
07:37PM 38.2469 -83.7708 314° West 363 418 34,900 -1,080 Descending Indianapolis Center
07:38PM 38.3167 -83.8639 314° West 363 418 33,800 -960 Descending Indianapolis Center
07:39PM 38.3969 -83.9708 314° West 361 415 33,000 -780 Descending Indianapolis Center
07:40PM 38.4672 -84.0633 314° West 363 418 32,200 -540 Descending Indianapolis Center
07:41PM 38.5358 -84.1561 313° West 358 412 32,000 -120 Descending Indianapolis Center
07:42PM 38.6031 -84.2489 313° West 354 407 32,000  Level Indianapolis Center
07:43PM 38.6764 -84.3489 313° West 351 404 32,000  Level Indianapolis Center
07:44PM 38.7467 -84.4433 314° West 361 415 32,000  Level Indianapolis Center
07:45PM 38.8178 -84.5400 313° West 360 414 32,000  Level Indianapolis Center
07:46PM 38.8972 -84.6219 321° Northwest 370 426 32,000  Level Indianapolis Center
07:47PM 38.9856 -84.6778 334° Northwest 362 417 32,000  Level Indianapolis Center
07:48PM 39.0725 -84.7342 333° Northwest 351 404 32,000  Level Indianapolis Center
07:49PM 39.1608 -84.7919 333° Northwest 351 404 32,000  Level Indianapolis Center
07:50PM 39.2467 -84.8481 333° Northwest 345 397 32,000  Level Indianapolis Center
07:51PM 39.3289 -84.9011 333° Northwest 348 400 32,000 -720 Level Indianapolis Center
07:52PM 39.4314 -84.9692 333° Northwest 346 398 30,600 -1,920 Descending Indianapolis Center
07:53PM 39.5194 -85.0272 333° Northwest 355 409 28,100 -1,320 Descending Indianapolis Center
07:54PM 39.6053 -85.0831 333° Northwest 349 402 28,000 -60 Descending Indianapolis Center
07:55PM 39.6892 -85.1389 333° Northwest 343 395 28,000 -300 Level Indianapolis Center
07:56PM 39.7736 -85.1953 333° Northwest 343 395 27,400 -840 Descending Indianapolis Center
07:57PM 39.8592 -85.2517 333° Northwest 346 398 26,400 -720 Descending Indianapolis Center
07:58PM 39.9639 -85.3217 333° Northwest 353 406 26,000 -240 Descending Indianapolis Center
07:59PM 40.0517 -85.3800 333° Northwest 356 410 26,000  Level Indianapolis Center
08:00PM 40.1394 -85.4397 333° Northwest 358 412 26,000 -240 Level Indianapolis Center
08:01PM 40.1750 -85.4633 333° Northwest 364 419 25,700 -960 Descending Chicago Center
08:02PM 40.2683 -85.5283 332° Northwest 381 438 24,700 -840 Descending Chicago Center
08:03PM 40.3406 -85.6306 313° West 383 441 24,000 -360 Descending Chicago Center
08:04PM 40.4247 -85.7556 312° West 383 441 24,000 -240 Level Chicago Center
08:05PM 40.4936 -85.8583 311° West 378 435 23,600 -780 Descending Chicago Center
08:06PM 40.5633 -85.9625 311° West 382 440 22,500 -1,140 Descending Chicago Center
08:07PM 40.6319 -86.0664 311° West 378 435 21,300 -1,140 Descending Chicago Center
08:08PM 40.6972 -86.1661 311° West 369 425 20,200 -660 Descending Chicago Center
08:09PM 40.7631 -86.2658 311° West 362 417 20,000 -120 Descending Chicago Center
08:10PM 40.8419 -86.3883 310° West 363 418 20,000  Level Chicago Center
08:11PM 40.9103 -86.4922 311° West 371 427 20,000  Level Chicago Center
08:12PM 40.9806 -86.5981 311° West 379 436 20,000 -360 Level Chicago Center
08:13PM 41.0472 -86.7006 311° West 371 427 19,300 -1,260 Descending Chicago Center
08:14PM 41.1181 -86.8092 311° West 361 415 17,400 -1,920 Descending Chicago Center
08:15PM 41.1800 -86.9061 310° West 349 402 15,400 -1,980 Descending Chicago Center
08:16PM 41.2419 -87.0003 311° West 341 392 13,400 -1,980 Descending Chicago Center
08:17PM 41.3017 -87.0950 310° West 338 389 11,400 -1,200 Descending Chicago Center
08:18PM 41.3706 -87.1997 311° West 318 366 11,000 -300 Descending Chicago Center
08:19PM 41.4167 -87.2500 321° Northwest 318 366 11,000 -120 Level Chicago TRACON
08:20PM 41.4833 -87.3333 317° Northwest 321 369 10,900 -540 Descending Chicago TRACON
08:21PM 41.5500 -87.4000 323° Northwest 320 368 10,000 -600 Descending Chicago TRACON
08:21PM 41.5692 -87.4325 308° West 320 368 10,000  Level Chicago Center
08:22PM 41.6508 -87.5214 321° Northwest 319 367 10,000  Level Chicago Center
08:23PM 41.7175 -87.5964 320° Northwest 318 366 10,000  Level Chicago Center
08:24PM 41.7500 -87.6333 320° Northwest 303 349 10,000 -660 Level Chicago TRACON
08:25PM 41.8000 -87.6833 323° Northwest 255 293 9,200 -1,260 Descending Chicago TRACON
08:26PM 41.8500 -87.7500 315° West 257 296 7,700 -1,140 Descending Chicago TRACON
08:27PM 41.8667 -87.8500 283° West 255 293 7,000 -360 Descending Chicago TRACON
08:28PM 41.8833 -87.9333 285° West 239 275 7,000 -60 Level Chicago TRACON
08:29PM 41.9000 -88.0000 289° West 218 251 6,900 -720 Descending Chicago TRACON
08:30PM 41.9000 -88.0833 270° West 204 235 5,600 -1,260 Descending Chicago TRACON
08:31PM 41.9069 -88.1386 280° West 205 236 4,500 -840 Descending Chicago Center
08:32PM 41.9228 -88.2100 287° West 196 226 4,000 -300 Descending Chicago Center
08:33PM 41.9658 -88.1778 29° Northeast 194 223 4,000 -420 Level Chicago Center
08:34PM 41.9683 -88.1036 87° East 197 227 3,200 -960 Descending Chicago Center
08:35PM 41.9667 -88.0333 92° East 180 207 2,100 -900 Descending Chicago TRACON
08:36PM 41.9667 -87.9833 90° East 131 151 1,400 -720 Descending Chicago TRACON
08:39PM 41.9667 -87.9000 62° Northeast  Level FlightAware Approximate